createdAt,value
2023-02-14T00:01:50.268Z,14.00
2023-02-14T00:04:19.648Z,15.40
2023-02-14T00:06:48.453Z,15.70
2023-02-14T00:09:19.800Z,14.90
2023-02-14T00:11:48.055Z,16.60
2023-02-14T00:14:36.294Z,14.60
2023-02-14T00:17:04.470Z,17.20
2023-02-14T00:19:34.593Z,17.00
2023-02-14T00:22:04.208Z,15.90
2023-02-14T00:24:33.013Z,14.30
2023-02-14T00:27:01.145Z,19.20
2023-02-14T00:29:32.456Z,16.90
2023-02-14T00:32:01.228Z,14.60
2023-02-14T00:34:29.707Z,14.10
2023-02-14T00:36:57.700Z,14.20
2023-02-14T00:39:25.962Z,14.80
2023-02-14T00:41:53.989Z,14.90
2023-02-14T00:44:22.166Z,15.50
2023-02-14T00:46:50.161Z,11.30
2023-02-14T00:49:18.471Z,11.90
2023-02-14T00:51:46.630Z,16.30
2023-02-14T00:54:14.647Z,8.80
2023-02-14T00:56:42.669Z,14.70
2023-02-14T00:59:11.888Z,16.80
2023-02-14T01:01:40.196Z,13.00
2023-02-14T01:04:09.077Z,17.50
2023-02-14T01:06:37.130Z,13.70
2023-02-14T01:09:05.270Z,12.30
2023-02-14T01:11:34.454Z,14.60
2023-02-14T01:14:02.699Z,13.10
2023-02-14T01:16:31.017Z,14.80
2023-02-14T01:19:01.117Z,15.60
2023-02-14T01:21:32.999Z,13.20
2023-02-14T01:24:05.263Z,15.30
2023-02-14T01:26:35.003Z,16.90
2023-02-14T01:29:05.659Z,11.00
2023-02-14T01:31:35.913Z,17.90
2023-02-14T01:34:05.417Z,13.00
2023-02-14T01:36:39.300Z,14.10
2023-02-14T01:39:12.364Z,13.40
2023-02-14T01:41:43.933Z,16.00
2023-02-14T01:44:15.067Z,13.80
2023-02-14T01:46:46.933Z,14.30
2023-02-14T01:49:22.168Z,15.70
2023-02-14T01:51:59.760Z,17.70
2023-02-14T01:54:29.388Z,17.10
2023-02-14T01:57:05.457Z,20.70
2023-02-14T01:59:38.411Z,12.20
2023-02-14T02:04:42.557Z,16.40
2023-02-14T02:07:19.461Z,16.30
2023-02-14T02:10:08.488Z,19.70
2023-02-14T02:12:38.126Z,19.00
2023-02-14T02:15:07.590Z,13.60
2023-02-14T02:17:38.387Z,14.60
2023-02-14T02:20:32.589Z,15.60
2023-02-14T02:23:35.780Z,16.20
2023-02-14T02:26:47.352Z,14.50
2023-02-14T02:30:00.350Z,14.70
2023-02-14T02:33:03.653Z,15.40
2023-02-14T02:35:49.770Z,14.10
2023-02-14T02:38:54.585Z,15.80
2023-02-14T02:41:52.831Z,15.50
2023-02-14T02:44:37.605Z,13.80
2023-02-14T02:47:13.516Z,13.70
2023-02-14T02:50:41.334Z,20.50
2023-02-14T02:53:29.484Z,17.20
2023-02-14T02:56:46.332Z,13.00
2023-02-14T02:59:42.665Z,16.10
2023-02-14T03:02:18.695Z,17.50
2023-02-14T03:04:56.635Z,14.60
2023-02-14T03:07:40.583Z,14.30
2023-02-14T03:10:16.380Z,15.40
2023-02-14T03:13:48.964Z,13.30
2023-02-14T03:16:32.215Z,17.40
2023-02-14T03:22:19.529Z,13.50
2023-02-14T03:25:04.866Z,19.20
2023-02-14T03:27:44.546Z,14.90
2023-02-14T03:30:41.958Z,13.30
2023-02-14T03:33:28.319Z,13.60
2023-02-14T03:36:11.193Z,12.00
2023-02-14T03:39:03.811Z,13.30
2023-02-14T03:41:39.140Z,12.60
2023-02-14T03:44:11.350Z,13.10
2023-02-14T03:46:47.458Z,15.60
2023-02-14T03:49:21.942Z,17.20
2023-02-14T03:51:55.064Z,12.80
2023-02-14T03:54:26.138Z,12.90
2023-02-14T03:57:24.996Z,15.40
2023-02-14T03:59:56.713Z,17.50
2023-02-14T04:02:46.623Z,14.20
2023-02-14T04:05:22.254Z,13.70
2023-02-14T04:07:54.494Z,15.10
2023-02-14T04:10:23.537Z,15.30
2023-02-14T04:12:52.048Z,14.00
2023-02-14T04:15:20.096Z,14.30
2023-02-14T04:18:07.080Z,14.70
2023-02-14T04:20:35.274Z,12.40
2023-02-14T04:23:04.324Z,13.20
2023-02-14T04:25:32.498Z,14.80
2023-02-14T04:28:00.526Z,13.80
2023-02-14T04:30:28.661Z,13.20
2023-02-14T04:32:56.728Z,10.20
2023-02-14T04:35:24.696Z,9.00
2023-02-14T04:37:52.796Z,12.20
2023-02-14T04:40:20.914Z,12.90
2023-02-14T04:42:48.941Z,14.20
2023-02-14T04:45:17.090Z,11.70
2023-02-14T04:47:45.363Z,13.80
2023-02-14T04:50:14.402Z,12.10
2023-02-14T04:52:42.571Z,13.90
2023-02-14T04:55:10.783Z,12.60
2023-02-14T04:57:38.884Z,12.50
2023-02-14T05:00:07.998Z,11.20
2023-02-14T05:02:35.985Z,14.60
2023-02-14T05:05:04.527Z,16.00
2023-02-14T05:07:32.582Z,13.80
2023-02-14T05:10:04.953Z,14.80
2023-02-14T05:12:32.910Z,12.70
2023-02-14T05:15:00.890Z,12.20
2023-02-14T05:17:29.080Z,16.80
2023-02-14T05:19:57.063Z,12.20
2023-02-14T05:22:25.143Z,13.60
2023-02-14T05:24:53.162Z,12.60
2023-02-14T05:27:21.129Z,15.30
2023-02-14T05:29:49.326Z,14.80
2023-02-14T05:32:17.506Z,12.70
2023-02-14T05:34:45.524Z,9.80
2023-02-14T05:37:13.480Z,11.10
2023-02-14T05:39:41.556Z,11.30
2023-02-14T05:42:12.571Z,17.00
2023-02-14T05:44:40.587Z,12.40
2023-02-14T05:47:08.593Z,15.10
2023-02-14T05:49:38.105Z,14.80
2023-02-14T05:52:06.253Z,12.10
2023-02-14T05:54:34.549Z,9.60
2023-02-14T05:57:02.693Z,12.30
2023-02-14T05:59:30.775Z,13.30
2023-02-14T06:01:58.750Z,12.20
2023-02-14T06:04:26.787Z,13.00
2023-02-14T06:06:54.867Z,12.40
2023-02-14T06:09:22.948Z,14.50
2023-02-14T06:11:51.122Z,11.30
2023-02-14T06:14:19.341Z,12.50
2023-02-14T06:16:47.573Z,15.80
2023-02-14T06:19:15.692Z,15.20
2023-02-14T06:21:43.780Z,12.90
2023-02-14T06:24:11.846Z,14.60
2023-02-14T06:26:40.263Z,12.60
2023-02-14T06:29:08.442Z,13.60
2023-02-14T06:31:36.848Z,12.40
2023-02-14T06:34:04.920Z,13.00
2023-02-14T06:36:33.853Z,15.20
2023-02-14T06:39:01.938Z,12.60
2023-02-14T06:41:30.032Z,16.10
2023-02-14T06:43:58.008Z,16.10
2023-02-14T06:46:26.093Z,16.40
2023-02-14T06:48:54.107Z,14.00
2023-02-14T06:51:22.172Z,15.20
2023-02-14T06:53:50.291Z,14.70
2023-02-14T06:56:18.321Z,15.90
2023-02-14T06:58:46.419Z,16.60
2023-02-14T07:01:16.563Z,14.60
2023-02-14T07:03:44.610Z,10.70
2023-02-14T07:06:12.852Z,21.70
2023-02-14T07:08:42.229Z,11.70
2023-02-14T07:11:10.468Z,11.90
2023-02-14T07:13:38.587Z,12.10
2023-02-14T07:16:06.854Z,14.10
2023-02-14T07:18:35.264Z,16.50
2023-02-14T07:21:03.563Z,16.80
2023-02-14T07:23:32.831Z,13.00
2023-02-14T07:26:00.967Z,19.40
2023-02-14T07:28:30.473Z,16.00
2023-02-14T07:31:03.143Z,17.70
2023-02-14T07:36:05.465Z,36.50
2023-02-14T07:38:34.520Z,16.70
2023-02-14T07:41:05.367Z,15.30
2023-02-14T07:43:34.550Z,10.50
2023-02-14T07:46:03.508Z,13.00
2023-02-14T07:48:34.772Z,18.60
2023-02-14T07:51:03.414Z,16.60
2023-02-14T07:53:31.731Z,20.70
2023-02-14T07:55:59.879Z,13.90
2023-02-14T07:58:29.221Z,17.90
2023-02-14T08:00:57.370Z,14.50
2023-02-14T08:03:25.794Z,11.20
2023-02-14T08:05:59.788Z,9.90
2023-02-14T08:08:32.645Z,14.80
2023-02-14T08:13:29.495Z,16.00
2023-02-14T08:16:07.521Z,10.60
2023-02-14T08:18:41.963Z,12.10
2023-02-14T08:21:11.402Z,16.10
2023-02-14T08:23:39.417Z,15.80
2023-02-14T08:26:07.865Z,18.60
2023-02-14T08:28:35.888Z,13.10
2023-02-14T08:31:05.275Z,12.00
2023-02-14T08:33:34.068Z,13.70
2023-02-14T08:36:03.138Z,16.00
2023-02-14T08:38:31.334Z,23.40
2023-02-14T08:41:04.382Z,13.90
2023-02-14T08:43:34.406Z,13.40
2023-02-14T08:46:03.422Z,13.60
2023-02-14T08:48:32.099Z,12.60
2023-02-14T08:51:12.127Z,11.30
2023-02-14T08:53:41.865Z,13.40
2023-02-14T08:56:13.678Z,12.10
2023-02-14T08:58:42.068Z,12.00
2023-02-14T09:01:17.422Z,8.60
2023-02-14T09:03:45.555Z,21.20
2023-02-14T09:06:17.533Z,13.40
2023-02-14T09:08:46.615Z,11.30
2023-02-14T09:11:20.781Z,9.20
2023-02-14T09:13:51.076Z,9.70
2023-02-14T09:16:22.374Z,8.00
2023-02-14T09:18:52.684Z,7.70
2023-02-14T09:21:25.861Z,7.10
2023-02-14T09:23:54.570Z,8.80
2023-02-14T09:26:22.870Z,7.00
2023-02-14T09:28:50.987Z,8.10
2023-02-14T09:31:24.315Z,11.80
2023-02-14T09:34:11.456Z,10.40
2023-02-14T09:36:58.065Z,10.90
2023-02-14T09:39:26.053Z,16.80
2023-02-14T09:42:31.764Z,8.40
2023-02-14T09:45:03.869Z,7.70
2023-02-14T09:48:10.122Z,7.50
2023-02-14T09:50:56.218Z,7.90
2023-02-14T09:53:35.953Z,7.40
2023-02-14T09:56:12.208Z,6.10
2023-02-14T09:58:53.315Z,7.00
2023-02-14T10:01:36.368Z,7.10
2023-02-14T10:04:24.065Z,8.80
2023-02-14T10:07:09.892Z,5.10
2023-02-14T10:10:06.385Z,4.40
2023-02-14T10:12:57.301Z,4.30
2023-02-14T10:15:34.262Z,4.30
2023-02-14T10:18:15.304Z,6.60
2023-02-14T10:20:53.150Z,4.80
2023-02-14T10:23:30.418Z,4.60
2023-02-14T10:26:07.976Z,5.90
2023-02-14T10:28:45.357Z,3.20
2023-02-14T10:32:00.372Z,5.00
2023-02-14T10:34:46.121Z,4.40
2023-02-14T10:37:44.844Z,4.70
2023-02-14T10:41:06.222Z,9.20
2023-02-14T10:43:51.416Z,4.30
2023-02-14T10:46:43.045Z,4.70
2023-02-14T10:49:49.602Z,6.00
2023-02-14T10:52:35.690Z,5.30
2023-02-14T10:55:33.029Z,4.70
2023-02-14T10:58:06.432Z,6.20
2023-02-14T11:00:39.330Z,4.40
2023-02-14T11:05:46.682Z,5.70
2023-02-14T11:08:26.973Z,126.20
2023-02-14T11:11:30.110Z,5.40
2023-02-14T11:13:58.200Z,5.10
2023-02-14T11:16:37.423Z,3.90
2023-02-14T11:19:14.771Z,5.70
2023-02-14T11:21:46.242Z,5.80
2023-02-14T11:24:31.308Z,3.50
2023-02-14T11:27:14.326Z,7.20
2023-02-14T11:32:29.643Z,4.60
2023-02-14T11:35:05.701Z,5.30
2023-02-14T11:37:49.655Z,5.50
2023-02-14T11:40:39.669Z,6.40
2023-02-14T11:43:14.173Z,3.30
2023-02-14T11:45:45.959Z,8.50
2023-02-14T11:48:37.233Z,5.70
2023-02-14T11:51:09.143Z,10.50
2023-02-14T11:53:48.719Z,6.60
2023-02-14T11:56:19.270Z,7.20
2023-02-14T11:59:03.827Z,5.10
2023-02-14T12:01:36.090Z,6.60
2023-02-14T12:04:23.211Z,6.80
2023-02-14T12:06:51.334Z,4.50
2023-02-14T12:09:22.373Z,5.00
2023-02-14T12:12:04.617Z,105.90
2023-02-14T12:14:35.537Z,107.50
2023-02-14T12:17:39.146Z,5.80
2023-02-14T12:23:03.654Z,6.90
2023-02-14T12:26:00.443Z,5.10
2023-02-14T12:28:39.638Z,7.30
2023-02-14T12:31:13.320Z,6.10
2023-02-14T12:33:41.804Z,6.80
2023-02-14T12:37:15.001Z,6.60
2023-02-14T12:40:08.445Z,7.30
2023-02-14T12:46:21.393Z,8.00
2023-02-14T12:49:18.874Z,5.40
2023-02-14T12:51:51.725Z,7.50
2023-02-14T12:54:48.277Z,6.40
2023-02-14T12:57:27.809Z,4.00
2023-02-14T13:00:33.215Z,6.10
2023-02-14T13:03:35.733Z,6.70
2023-02-14T13:06:44.781Z,6.80
2023-02-14T13:09:38.855Z,9.70
2023-02-14T13:12:26.446Z,5.90
2023-02-14T13:15:21.920Z,7.70
2023-02-14T13:18:11.151Z,4.30
2023-02-14T13:20:48.332Z,9.10
2023-02-14T13:23:27.566Z,8.20
2023-02-14T13:26:41.696Z,6.20
2023-02-14T13:29:21.099Z,5.90
2023-02-14T13:31:52.311Z,6.10
2023-02-14T13:34:39.165Z,6.10
2023-02-14T13:37:12.455Z,4.40
2023-02-14T13:40:08.146Z,7.50
2023-02-14T13:42:48.805Z,4.50
2023-02-14T13:45:50.609Z,6.60
2023-02-14T13:48:25.247Z,9.40
2023-02-14T13:51:09.036Z,5.90
2023-02-14T13:53:48.407Z,8.40
2023-02-14T13:56:16.403Z,8.20
2023-02-14T13:58:55.874Z,4.80
2023-02-14T14:01:50.199Z,9.80
2023-02-14T14:04:31.946Z,6.50
2023-02-14T14:07:03.022Z,8.20
2023-02-14T14:09:51.137Z,15.50
2023-02-14T14:12:28.265Z,12.00
2023-02-14T14:15:05.398Z,9.10
2023-02-14T14:17:42.972Z,11.10
2023-02-14T14:20:16.757Z,7.60
2023-02-14T14:22:49.422Z,5.40
2023-02-14T14:25:38.196Z,8.20
2023-02-14T14:28:21.212Z,8.50
2023-02-14T14:30:52.292Z,9.00
2023-02-14T14:33:28.480Z,5.60
2023-02-14T14:36:07.376Z,11.40
2023-02-14T14:38:49.290Z,4.90
2023-02-14T14:41:18.044Z,7.90
2023-02-14T14:43:47.331Z,9.40
2023-02-14T14:46:16.387Z,7.90
2023-02-14T14:48:54.858Z,7.20
2023-02-14T14:51:35.493Z,6.60
2023-02-14T14:54:17.640Z,7.20
2023-02-14T14:56:57.008Z,12.30
2023-02-14T14:59:36.000Z,15.00
2023-02-14T15:02:26.354Z,17.90
2023-02-14T15:04:55.010Z,11.90
2023-02-14T15:07:34.838Z,8.40
2023-02-14T15:10:03.636Z,12.10
2023-02-14T15:12:50.219Z,11.90
2023-02-14T15:15:18.999Z,10.90
2023-02-14T15:17:48.150Z,10.80
2023-02-14T15:20:23.741Z,10.20
2023-02-14T15:22:53.476Z,7.20
2023-02-14T15:25:31.909Z,9.10
2023-02-14T15:28:01.514Z,129.20
2023-02-14T15:30:34.747Z,12.60
2023-02-14T15:33:06.007Z,8.30
2023-02-14T15:35:42.046Z,8.60
2023-02-14T15:38:13.455Z,12.20
2023-02-14T15:40:43.516Z,12.10
2023-02-14T15:43:30.222Z,20.30
2023-02-14T15:46:28.003Z,15.60
2023-02-14T15:49:01.164Z,13.50
2023-02-14T15:54:04.259Z,14.00
2023-02-14T15:56:47.464Z,11.40
2023-02-14T15:59:26.361Z,9.30
2023-02-14T16:02:00.526Z,9.80
2023-02-14T16:04:32.592Z,12.00
2023-02-14T16:07:24.709Z,10.30
2023-02-14T16:10:25.324Z,15.60
2023-02-14T16:13:32.124Z,8.20
2023-02-14T16:16:06.533Z,16.90
2023-02-14T16:18:39.955Z,9.80
2023-02-14T16:21:16.582Z,11.30
2023-02-14T16:24:08.235Z,9.00
2023-02-14T16:26:39.918Z,12.80
2023-02-14T16:29:15.994Z,11.60
2023-02-14T16:32:14.082Z,13.50
2023-02-14T16:34:39.106Z,11.30
2023-02-14T16:37:18.900Z,9.50
2023-02-14T16:39:48.062Z,9.10
2023-02-14T16:42:18.146Z,11.20
2023-02-14T16:44:47.940Z,16.90
2023-02-14T16:47:18.658Z,13.00
2023-02-14T16:49:47.343Z,13.00
2023-02-14T16:52:23.862Z,13.00
2023-02-14T16:54:57.347Z,12.10
2023-02-14T16:57:30.669Z,13.30
2023-02-14T16:59:58.733Z,19.60
2023-02-14T17:02:28.426Z,18.40
2023-02-14T17:04:58.957Z,16.30
2023-02-14T17:07:29.691Z,15.70
2023-02-14T17:10:06.217Z,14.90
2023-02-14T17:12:39.953Z,15.80
2023-02-14T17:15:18.766Z,19.60
2023-02-14T17:17:50.156Z,19.00
2023-02-14T17:20:20.280Z,14.70
2023-02-14T17:22:48.707Z,16.90
2023-02-14T17:25:21.729Z,15.90
2023-02-14T17:27:51.337Z,18.00
2023-02-14T17:30:20.465Z,19.70
2023-02-14T17:32:51.866Z,21.20
2023-02-14T17:35:21.188Z,23.10
2023-02-14T17:37:49.414Z,94.90
2023-02-14T17:40:17.746Z,28.00
2023-02-14T17:42:45.921Z,19.80
2023-02-14T17:45:14.662Z,21.50
2023-02-14T17:47:44.733Z,26.00
2023-02-14T17:50:14.522Z,28.20
2023-02-14T17:52:42.657Z,36.10
2023-02-14T17:55:15.958Z,37.90
2023-02-14T17:57:44.273Z,30.60
2023-02-14T18:00:25.397Z,29.50
2023-02-14T18:02:53.632Z,31.00
2023-02-14T18:05:29.134Z,34.50
2023-02-14T18:08:03.429Z,36.90
2023-02-14T18:10:46.424Z,34.60
2023-02-14T18:13:14.396Z,29.20
2023-02-14T18:15:46.976Z,23.60
2023-02-14T18:18:18.796Z,24.90
2023-02-14T18:20:57.582Z,26.10
2023-02-14T18:23:26.441Z,22.20
2023-02-14T18:26:01.096Z,20.90
2023-02-14T18:28:35.009Z,25.60
2023-02-14T18:31:14.032Z,30.30
2023-02-14T18:33:43.526Z,56.10
2023-02-14T18:36:24.283Z,48.30
2023-02-14T18:38:57.311Z,33.30
2023-02-14T18:41:32.011Z,43.50
2023-02-14T18:44:01.990Z,40.90
2023-02-14T18:46:35.659Z,40.10
2023-02-14T18:49:08.485Z,36.50
2023-02-14T18:51:42.287Z,40.20
2023-02-14T18:54:11.372Z,44.30
2023-02-14T18:56:42.281Z,47.30
2023-02-14T18:59:13.415Z,44.80
2023-02-14T19:01:45.074Z,46.10
2023-02-14T19:04:14.853Z,47.60
2023-02-14T19:06:44.978Z,50.00
2023-02-14T19:09:17.198Z,42.40
2023-02-14T19:11:45.981Z,43.90
2023-02-14T19:14:14.066Z,43.40
2023-02-14T19:16:57.069Z,48.80
2023-02-14T19:19:34.867Z,43.20
2023-02-14T19:22:03.774Z,47.20
2023-02-14T19:24:31.782Z,59.70
2023-02-14T19:27:00.172Z,53.10
2023-02-14T19:29:28.357Z,54.30
2023-02-14T19:31:56.452Z,56.20
2023-02-14T19:34:30.400Z,59.50
2023-02-14T19:37:02.222Z,55.60
2023-02-14T19:39:33.985Z,58.70
2023-02-14T19:42:02.205Z,63.00
2023-02-14T19:44:31.254Z,68.50
2023-02-14T19:47:01.897Z,68.90
2023-02-14T19:49:32.221Z,58.30
2023-02-14T19:52:00.260Z,85.60
2023-02-14T19:54:30.415Z,91.20
2023-02-14T19:56:58.608Z,80.80
2023-02-14T19:59:27.922Z,175.90
2023-02-14T20:01:56.874Z,397.10
2023-02-14T20:04:28.901Z,197.60
2023-02-14T20:06:57.890Z,75.50
2023-02-14T20:09:26.481Z,75.90
2023-02-14T20:11:56.995Z,61.90
2023-02-14T20:14:29.932Z,67.80
2023-02-14T20:17:03.694Z,70.00
2023-02-14T20:19:37.702Z,64.80
2023-02-14T20:22:08.212Z,68.40
2023-02-14T20:24:36.208Z,70.50
2023-02-14T20:27:04.345Z,68.80
2023-02-14T20:29:33.217Z,88.40
2023-02-14T20:32:03.587Z,291.10
2023-02-14T20:34:31.811Z,373.20
2023-02-14T20:37:00.271Z,95.80
2023-02-14T20:39:31.953Z,69.20
2023-02-14T20:42:01.097Z,70.40
2023-02-14T20:44:29.787Z,71.60
2023-02-14T20:46:58.199Z,72.20
2023-02-14T20:49:33.591Z,87.00
2023-02-14T20:52:23.363Z,90.60
2023-02-14T20:54:54.315Z,67.90
2023-02-14T20:57:23.581Z,84.10
2023-02-14T20:59:51.713Z,96.90
2023-02-14T21:02:19.666Z,86.10
2023-02-14T21:04:47.725Z,77.70
2023-02-14T21:07:15.700Z,78.10
2023-02-14T21:09:43.749Z,87.90
2023-02-14T21:12:12.278Z,88.20
2023-02-14T21:14:40.264Z,82.80
2023-02-14T21:17:08.541Z,548.00
2023-02-14T21:19:38.057Z,96.40
2023-02-14T21:22:06.486Z,89.00
2023-02-14T21:24:37.311Z,84.20
2023-02-14T21:27:08.663Z,94.50
2023-02-14T21:29:36.692Z,89.20
2023-02-14T21:32:05.205Z,82.50
2023-02-14T21:34:35.937Z,76.20
2023-02-14T21:37:05.435Z,112.10
2023-02-14T21:39:35.756Z,83.70
2023-02-14T21:42:08.034Z,80.80
2023-02-14T21:44:55.194Z,74.80
2023-02-14T21:47:23.542Z,85.40
2023-02-14T21:50:10.245Z,77.40
2023-02-14T21:52:38.232Z,81.20
2023-02-14T21:55:06.758Z,84.80
2023-02-14T21:57:34.697Z,74.40
2023-02-14T22:00:04.066Z,71.50
2023-02-14T22:02:39.829Z,79.20
2023-02-14T22:05:08.300Z,79.60
2023-02-14T22:07:37.604Z,71.10
2023-02-14T22:10:06.496Z,72.90
2023-02-14T22:12:36.199Z,81.40
2023-02-14T22:15:05.292Z,78.80
2023-02-14T22:17:33.615Z,87.70
2023-02-14T22:20:01.629Z,76.10
2023-02-14T22:22:29.623Z,88.90
2023-02-14T22:24:57.652Z,73.00
2023-02-14T22:27:25.724Z,82.40
2023-02-14T22:29:53.836Z,73.10
2023-02-14T22:32:23.690Z,73.60
2023-02-14T22:34:52.228Z,71.80
2023-02-14T22:37:23.000Z,69.90
2023-02-14T22:39:51.056Z,92.80
2023-02-14T22:42:20.541Z,84.90
2023-02-14T22:44:48.890Z,77.70
2023-02-14T22:47:16.947Z,80.00
2023-02-14T22:49:44.977Z,85.90
2023-02-14T22:52:13.309Z,69.10
2023-02-14T22:54:41.702Z,75.70
2023-02-14T22:57:09.899Z,80.80
2023-02-14T22:59:38.601Z,74.70
2023-02-14T23:02:07.148Z,84.40
2023-02-14T23:04:35.503Z,79.40
2023-02-14T23:07:03.616Z,83.90
2023-02-14T23:09:31.916Z,85.80
2023-02-14T23:12:00.590Z,76.60
2023-02-14T23:14:47.373Z,362.80
2023-02-14T23:17:19.157Z,90.40
2023-02-14T23:20:07.106Z,96.40
2023-02-14T23:22:42.121Z,84.40
2023-02-14T23:25:12.533Z,86.40
2023-02-14T23:27:45.252Z,97.20
2023-02-14T23:30:19.395Z,99.50
2023-02-14T23:32:48.748Z,93.00
2023-02-14T23:35:17.405Z,107.40
2023-02-14T23:37:45.857Z,102.80
2023-02-14T23:40:14.728Z,96.50
2023-02-14T23:42:42.961Z,112.30
2023-02-14T23:45:30.053Z,104.80
2023-02-14T23:48:05.770Z,100.60
2023-02-14T23:50:34.157Z,115.90
2023-02-14T23:53:02.547Z,97.70
2023-02-14T23:55:31.916Z,103.50
2023-02-14T23:58:01.698Z,108.70
